Time;durP1;ratioP1;P1;durP2;ratioP2;P2;SDS_P1;SDS_P2;PMS_P1;PMS_P2;Temp;Humidity;BMP_temperature;BMP_pressure;BME280_temperature;BME280_humidity;BME280_pressure;Samples;Min_cycle;Max_cycle;Signal;HPM_P1;HPM_P2
2023/04/21 00:00:44;;;;;;;;;30.50;28.75;;;;;6.14;100.00;100776.28;4976129;28;45582;-73
2023/04/21 00:03:10;;;;;;;;;32.75;29.50;;;;;6.09;100.00;100773.25;4976107;28;45948;-74
2023/04/21 00:05:35;;;;;;;;;35.50;28.75;;;;;6.07;100.00;100767.13;4979574;28;45660;-73
2023/04/21 00:08:01;;;;;;;;;32.00;27.50;;;;;6.04;100.00;100764.75;4974973;28;45375;-74
2023/04/21 00:10:26;;;;;;;;;33.00;25.25;;;;;5.98;100.00;100765.47;4958647;28;45389;-75
2023/04/21 00:12:51;;;;;;;;;34.75;30.25;;;;;5.95;100.00;100761.19;4988243;28;46984;-75
2023/04/21 00:15:17;;;;;;;;;35.25;30.00;;;;;5.93;100.00;100763.25;4984052;28;45833;-73
2023/04/21 00:17:42;;;;;;;;;30.25;24.50;;;;;5.86;100.00;100754.09;4982314;28;45486;-74
2023/04/21 00:20:09;;;;;;;;;30.00;29.00;;;;;5.85;100.00;100757.84;4981620;28;45522;-74
2023/04/21 00:22:35;;;;;;;;;30.25;27.00;;;;;5.81;100.00;100751.91;4983403;28;45452;-73
2023/04/21 00:25:01;;;;;;;;;30.75;27.25;;;;;5.76;100.00;100743.47;4977464;28;46281;-73
2023/04/21 00:27:26;;;;;;;;;31.50;26.75;;;;;5.75;100.00;100743.59;4989717;28;45622;-72
2023/04/21 00:29:52;;;;;;;;;38.75;25.75;;;;;5.63;100.00;100722.25;4996773;28;45806;-73
2023/04/21 00:32:17;;;;;;;;;28.00;21.00;;;;;5.72;100.00;100744.81;4982592;28;45428;-73
2023/04/21 00:34:42;;;;;;;;;25.50;21.25;;;;;5.70;100.00;100741.41;4992297;28;45481;-71
2023/04/21 00:37:08;;;;;;;;;30.75;26.50;;;;;5.70;100.00;100735.13;4955204;28;45552;-72
2023/04/21 00:39:33;;;;;;;;;35.00;28.00;;;;;5.69;100.00;100741.59;4991165;28;45633;-74
2023/04/21 00:42:00;;;;;;;;;35.75;30.00;;;;;5.70;100.00;100741.41;4981534;28;46013;-73
2023/04/21 00:44:25;;;;;;;;;39.50;29.25;;;;;5.70;100.00;100726.97;4980618;28;45555;-73
2023/04/21 00:46:51;;;;;;;;;31.75;28.00;;;;;5.68;100.00;100727.16;4985151;28;45874;-73
2023/04/21 00:49:16;;;;;;;;;30.25;28.00;;;;;5.70;100.00;100729.69;4985314;28;45515;-74
2023/04/21 00:51:42;;;;;;;;;26.50;24.50;;;;;5.63;100.00;100711.38;4967467;28;46626;-75
2023/04/21 00:54:10;;;;;;;;;41.25;29.25;;;;;5.70;100.00;100719.66;4981356;28;45535;-72
2023/04/21 00:56:36;;;;;;;;;35.25;28.50;;;;;5.60;100.00;100680.97;4981178;28;45422;-74
2023/04/21 00:59:02;;;;;;;;;29.25;28.00;;;;;5.77;100.00;100715.19;4984902;28;45671;-72
2023/04/21 01:01:29;;;;;;;;;25.75;19.75;;;;;5.81;100.00;100700.22;4990372;28;46119;-73
2023/04/21 01:03:58;;;;;;;;;31.50;27.75;;;;;5.86;100.00;100693.41;4984898;28;45570;-72
2023/04/21 01:06:27;;;;;;;;;33.00;23.50;;;;;5.95;100.00;100695.03;4988715;28;45853;-72
2023/04/21 01:08:54;;;;;;;;;27.75;26.75;;;;;5.96;100.00;100692.13;4985786;28;45551;-74
2023/04/21 01:11:20;;;;;;;;;29.75;25.25;;;;;6.02;100.00;100701.50;4969229;28;47272;-72
2023/04/21 01:13:46;;;;;;;;;30.25;28.00;;;;;6.16;100.00;100691.69;4983010;28;45584;-73
2023/04/21 01:16:16;;;;;;;;;32.00;26.00;;;;;6.22;100.00;100690.13;4980479;28;45606;-73
2023/04/21 01:18:42;;;;;;;;;16.75;16.75;;;;;6.29;100.00;100689.22;4983994;28;45715;-73
2023/04/21 01:21:08;;;;;;;;;35.50;28.75;;;;;6.36;100.00;100686.59;4988202;28;45538;-74
2023/04/21 01:23:33;;;;;;;;;28.00;25.50;;;;;6.43;100.00;100689.44;4982276;28;45480;-74
2023/04/21 01:25:59;;;;;;;;;28.00;23.75;;;;;6.48;100.00;100679.69;4981932;28;45820;-74
2023/04/21 01:28:25;;;;;;;;;35.75;29.00;;;;;6.52;100.00;100681.00;4981133;28;45898;-73
2023/04/21 01:30:51;;;;;;;;;25.33;25.00;;;;;6.51;100.00;100670.28;4983352;28;45761;-74
2023/04/21 01:33:19;;;;;;;;;27.50;26.75;;;;;6.50;100.00;100679.50;4978958;28;45786;-72
2023/04/21 01:35:45;;;;;;;;;26.67;21.33;;;;;6.50;100.00;100674.91;4981273;28;45285;-73
2023/04/21 01:38:11;;;;;;;;;29.00;23.67;;;;;6.50;100.00;100676.78;4974835;28;46100;-73
2023/04/21 01:40:37;;;;;;;;;28.67;27.00;;;;;6.53;100.00;100671.81;4989139;28;46336;-72
2023/04/21 01:43:02;;;;;;;;;22.25;22.25;;;;;6.62;100.00;100671.75;4961515;28;45421;-73
2023/04/21 01:45:29;;;;;;;;;31.33;24.33;;;;;6.66;100.00;100664.88;4950859;28;45453;-73
2023/04/21 01:47:54;;;;;;;;;33.25;26.00;;;;;6.82;100.00;100674.78;4957951;28;46048;-72
2023/04/21 01:50:20;;;;;;;;;33.50;27.75;;;;;6.84;100.00;100667.25;4978688;28;46511;-72
2023/04/21 01:52:46;;;;;;;;;30.33;26.00;;;;;6.84;100.00;100661.78;4992895;28;45436;-73
2023/04/21 01:55:11;;;;;;;;;30.67;25.33;;;;;6.82;100.00;100648.34;4981573;28;45970;-72
2023/04/21 01:57:37;;;;;;;;;24.00;21.00;;;;;6.93;100.00;100666.16;4960869;28;45779;-72
2023/04/21 02:00:03;;;;;;;;;25.00;23.00;;;;;6.97;100.00;100656.53;4980283;28;45481;-72
2023/04/21 02:02:29;;;;;;;;;23.25;20.75;;;;;7.02;100.00;100655.97;4979301;28;45522;-73
2023/04/21 02:04:54;;;;;;;;;30.50;27.50;;;;;7.01;100.00;100654.28;4981560;28;45496;-73
2023/04/21 02:07:20;;;;;;;;;26.33;23.67;;;;;7.05;100.00;100653.72;4980693;28;45513;-74
2023/04/21 02:09:45;;;;;;;;;28.67;24.33;;;;;7.07;100.00;100639.91;4980397;28;46638;-74
2023/04/21 02:12:11;;;;;;;;;26.00;21.33;;;;;7.14;100.00;100650.91;4973435;28;45539;-73
2023/04/21 02:14:36;;;;;;;;;26.25;24.50;;;;;7.14;100.00;100646.31;4958789;28;45334;-74
2023/04/21 02:17:02;;;;;;;;;31.67;27.33;;;;;7.24;100.00;100646.88;4981704;28;45274;-75
2023/04/21 02:19:28;;;;;;;;;25.67;18.67;;;;;7.34;100.00;100638.38;4994891;28;45990;-73
2023/04/21 02:21:54;;;;;;;;;24.00;21.33;;;;;7.41;100.00;100641.19;4989143;28;45786;-75
2023/04/21 02:24:20;;;;;;;;;19.33;18.00;;;;;7.37;100.00;100609.88;4978569;28;45723;-73
2023/04/21 02:26:45;;;;;;;;;28.00;21.33;;;;;7.49;100.00;100630.16;4984759;28;45518;-74
2023/04/21 02:29:11;;;;;;;;;26.00;23.00;;;;;7.57;100.00;100630.06;4986755;28;45432;-73
2023/04/21 02:31:36;;;;;;;;;20.67;19.33;;;;;7.62;100.00;100629.50;4958579;28;45470;-74
2023/04/21 02:34:01;;;;;;;;;31.00;19.67;;;;;7.65;100.00;100630.97;4979656;28;45476;-72
2023/04/21 02:36:27;;;;;;;;;26.67;22.00;;;;;7.72;100.00;100634.63;4975006;28;45389;-74
2023/04/21 02:38:52;;;;;;;;;25.33;19.00;;;;;7.78;100.00;100629.25;4955630;28;47520;-73
2023/04/21 02:41:18;;;;;;;;;25.67;22.00;;;;;7.80;100.00;100626.31;4969490;28;45466;-73
2023/04/21 02:43:43;;;;;;;;;25.00;20.67;;;;;7.85;100.00;100626.56;4978425;28;45569;-73
2023/04/21 02:46:09;;;;;;;;;20.33;19.33;;;;;7.86;100.00;100628.28;4979257;28;45817;-72
2023/04/21 02:48:35;;;;;;;;;23.00;19.00;;;;;7.86;100.00;100620.09;4959763;28;47145;-73
2023/04/21 02:51:00;;;;;;;;;23.00;19.00;;;;;7.88;100.00;100626.19;4976506;28;45421;-72
2023/04/21 02:53:25;;;;;;;;;22.67;22.67;;;;;7.91;100.00;100628.53;4960639;28;45489;-74
2023/04/21 02:55:51;;;;;;;;;30.00;21.67;;;;;7.85;100.00;100629.31;4986388;28;45930;-73
2023/04/21 02:58:17;;;;;;;;;28.67;23.00;;;;;7.86;100.00;100636.47;4976471;28;46475;-73
2023/04/21 03:00:42;;;;;;;;;26.00;19.00;;;;;7.88;100.00;100625.34;4975924;28;45320;-73
2023/04/21 03:03:08;;;;;;;;;31.67;26.00;;;;;7.94;100.00;100632.75;4964890;28;45635;-73
2023/04/21 03:05:33;;;;;;;;;22.00;22.00;;;;;7.88;100.00;100615.25;4978647;28;45373;-73
2023/04/21 03:07:59;;;;;;;;;20.00;17.00;;;;;7.91;100.00;100608.56;4955651;28;47046;-73
2023/04/21 03:10:24;;;;;;;;;31.67;25.33;;;;;7.91;100.00;100608.56;4956265;28;45545;-71
2023/04/21 03:12:50;;;;;;;;;24.00;18.33;;;;;8.03;100.00;100622.56;4977354;28;45727;-73
2023/04/21 03:15:15;;;;;;;;;20.67;20.00;;;;;8.03;100.00;100615.19;4977165;28;45452;-75
2023/04/21 03:17:41;;;;;;;;;20.67;17.33;;;;;8.08;100.00;100609.16;4976421;28;47659;-78
2023/04/21 03:20:08;;;;;;;;;24.67;21.00;;;;;8.08;100.00;100603.69;4984611;28;45614;-77
2023/04/21 03:22:37;;;;;;;;;25.00;22.00;;;;;8.00;100.00;100590.19;4961666;28;45464;-76
2023/04/21 03:25:04;;;;;;;;;25.33;21.00;;;;;8.13;100.00;100613.00;4996382;28;46764;-77
2023/04/21 03:27:30;;;;;;;;;26.00;18.33;;;;;8.15;100.00;100599.13;4995911;28;45486;-74
2023/04/21 03:29:55;;;;;;;;;29.67;22.67;;;;;8.19;100.00;100603.16;4984789;28;45516;-75
2023/04/21 03:32:21;;;;;;;;;39.00;32.75;;;;;8.21;100.00;100608.44;4993253;28;45429;-78
2023/04/21 03:34:46;;;;;;;;;46.25;38.00;;;;;8.20;100.00;100599.38;4984258;28;45395;-78
2023/04/21 03:37:12;;;;;;;;;46.50;37.75;;;;;8.15;100.00;100593.66;4991774;28;45792;-74
2023/04/21 03:39:38;;;;;;;;;38.67;30.67;;;;;8.17;100.00;100597.03;4991348;28;45480;-77
2023/04/21 03:42:04;;;;;;;;;46.50;35.25;;;;;8.13;100.00;100596.59;4982921;28;45487;-80
2023/04/21 03:44:30;;;;;;;;;41.25;32.75;;;;;7.94;100.00;100562.59;4990779;28;45335;-79
2023/04/21 03:46:56;;;;;;;;;33.67;25.33;;;;;8.10;100.00;100588.78;4985532;28;46514;-79
2023/04/21 03:49:22;;;;;;;;;34.67;30.00;;;;;8.05;100.00;100579.50;4999840;28;45252;-80
2023/04/21 03:51:47;;;;;;;;;38.00;28.00;;;;;7.96;100.00;100562.41;4998120;28;45336;-80
2023/04/21 03:54:12;;;;;;;;;30.00;28.50;;;;;8.12;100.00;100585.88;4994190;28;45403;-79
2023/04/21 03:56:38;;;;;;;;;26.75;25.50;;;;;8.20;100.00;100579.41;4994389;28;45814;-79
2023/04/21 03:59:04;;;;;;;;;26.00;19.00;;;;;8.24;100.00;100591.66;4988326;28;45442;-78
2023/04/21 04:01:30;;;;;;;;;29.67;22.67;;;;;8.26;100.00;100586.81;4982897;28;45402;-77
2023/04/21 04:03:55;;;;;;;;;24.00;22.00;;;;;8.16;100.00;100569.91;4993499;28;45472;-78
2023/04/21 04:06:20;;;;;;;;;29.33;22.67;;;;;8.20;100.00;100566.59;5003084;28;46421;-78
2023/04/21 04:08:46;;;;;;;;;29.33;25.00;;;;;8.34;100.00;100583.09;4981290;28;45421;-78
2023/04/21 04:11:12;;;;;;;;;27.33;21.00;;;;;8.33;100.00;100578.69;4985945;28;45476;-77
2023/04/21 04:13:37;;;;;;;;;30.00;24.33;;;;;8.22;100.00;100567.25;4979848;28;46101;-78
2023/04/21 04:16:03;;;;;;;;;25.33;24.00;;;;;8.22;100.00;100566.41;4966436;28;47163;-79
2023/04/21 04:18:28;;;;;;;;;26.67;25.00;;;;;8.26;100.00;100567.69;4982446;28;45786;-78
2023/04/21 04:20:54;;;;;;;;;31.67;24.00;;;;;8.11;100.00;100559.59;4985269;28;45716;-78
2023/04/21 04:23:20;;;;;;;;;27.00;21.00;;;;;8.16;100.00;100557.13;4984382;28;45127;-80
2023/04/21 04:25:46;;;;;;;;;30.00;27.33;;;;;8.23;100.00;100574.41;4971726;28;45819;-79
2023/04/21 04:28:12;;;;;;;;;30.67;26.33;;;;;8.02;100.00;100531.56;4983624;28;44763;-78
2023/04/21 04:30:37;;;;;;;;;32.00;24.33;;;;;8.16;100.00;100550.78;4981177;28;45299;-79
2023/04/21 04:33:03;;;;;;;;;24.67;23.33;;;;;8.28;100.00;100563.72;4980123;28;45461;-79
2023/04/21 04:35:29;;;;;;;;;20.00;18.33;;;;;8.25;100.00;100557.84;4985600;28;46536;-79
2023/04/21 04:37:55;;;;;;;;;26.67;23.33;;;;;8.32;100.00;100566.91;4973223;28;45573;-77
2023/04/21 04:40:21;;;;;;;;;30.67;24.33;;;;;8.36;100.00;100575.56;4983630;28;45556;-78
2023/04/21 04:42:47;;;;;;;;;26.67;23.00;;;;;8.37;100.00;100579.97;4985211;28;45593;-76
2023/04/21 04:45:13;;;;;;;;;27.33;23.00;;;;;8.39;100.00;100577.91;4978628;28;45382;-75
2023/04/21 04:47:39;;;;;;;;;22.33;21.00;;;;;8.40;100.00;100574.13;4969523;28;45381;-75
2023/04/21 04:50:05;;;;;;;;;24.33;20.33;;;;;8.39;100.00;100583.34;4977582;28;46123;-75
2023/04/21 04:52:31;;;;;;;;;29.33;25.67;;;;;8.39;100.00;100577.91;4985422;28;45767;-76
2023/04/21 04:54:56;;;;;;;;;31.00;25.00;;;;;8.35;100.00;100584.78;4979366;28;46141;-74
2023/04/21 04:57:22;;;;;;;;;35.00;27.00;;;;;8.36;100.00;100573.66;4977289;28;45314;-75
2023/04/21 04:59:47;;;;;;;;;26.33;23.00;;;;;8.41;100.00;100576.66;4983149;28;45789;-74
2023/04/21 05:02:13;;;;;;;;;34.67;27.00;;;;;8.42;100.00;100572.03;4981551;28;45632;-75
2023/04/21 05:04:39;;;;;;;;;35.67;28.00;;;;;8.43;100.00;100573.72;4986316;28;45683;-75
2023/04/21 05:07:06;;;;;;;;;28.00;26.33;;;;;8.40;100.00;100574.97;4973049;28;45801;-74
2023/04/21 05:09:32;;;;;;;;;25.33;25.00;;;;;8.39;100.00;100569.69;4973236;28;45712;-75
2023/04/21 05:11:58;;;;;;;;;34.67;28.00;;;;;8.40;100.00;100574.97;4974892;28;45964;-75
2023/04/21 05:14:25;;;;;;;;;29.00;23.33;;;;;8.35;100.00;100554.72;4976359;28;45956;-73
2023/04/21 05:16:52;;;;;;;;;30.33;25.33;;;;;8.41;100.00;100573.06;4977010;28;45813;-74
2023/04/21 05:19:17;;;;;;;;;28.67;24.00;;;;;8.40;100.00;100569.50;4974147;28;45561;-75
2023/04/21 05:21:43;;;;;;;;;25.67;23.67;;;;;8.42;100.00;100563.84;4973437;28;46033;-74
2023/04/21 05:24:08;;;;;;;;;21.33;19.67;;;;;8.50;100.00;100569.16;4981084;28;45538;-75
2023/04/21 05:26:34;;;;;;;;;30.67;26.00;;;;;8.54;100.00;100558.69;4980162;28;45565;-73
2023/04/21 05:28:59;;;;;;;;;24.00;16.33;;;;;8.63;100.00;100563.78;4961943;28;45511;-74
2023/04/21 05:31:25;;;;;;;;;27.67;23.67;;;;;8.70;100.00;100568.44;4974208;28;47015;-75
2023/04/21 05:33:50;;;;;;;;;29.33;26.33;;;;;8.76;100.00;100565.75;4979202;28;45898;-74
2023/04/21 05:36:16;;;;;;;;;26.67;23.33;;;;;8.81;100.00;100559.69;4976129;28;45574;-74
2023/04/21 05:38:42;;;;;;;;;25.33;22.33;;;;;8.86;100.00;100562.66;4952791;28;45835;-74
2023/04/21 05:41:07;;;;;;;;;29.67;25.00;;;;;8.96;100.00;100565.03;4975765;28;45900;-77
2023/04/21 05:43:33;;;;;;;;;27.33;25.67;;;;;9.00;100.00;100563.59;4974511;28;45778;-76
2023/04/21 05:46:07;;;;;;;;;26.67;23.67;;;;;9.09;100.00;100567.00;4974629;28;45842;-76
2023/04/21 05:48:33;;;;;;;;;30.00;27.67;;;;;9.10;100.00;100566.78;4976608;28;45768;-77
2023/04/21 05:51:11;;;;;;;;;31.67;28.33;;;;;9.09;100.00;100564.25;4973797;28;45479;-77
2023/04/21 05:53:40;;;;;;;;;29.33;24.67;;;;;9.15;100.00;100560.69;4973515;28;45709;-76
2023/04/21 05:56:08;;;;;;;;;33.33;28.67;;;;;9.14;100.00;100575.41;4960319;28;45898;-80
2023/04/21 05:58:34;;;;;;;;;35.00;29.00;;;;;8.76;100.00;100546.63;4959146;28;45422;-77
2023/04/21 06:01:00;;;;;;;;;30.33;27.33;;;;;8.82;100.00;100570.41;4985701;28;46016;-75
2023/04/21 06:03:25;;;;;;;;;31.33;26.67;;;;;8.72;100.00;100563.63;4975533;28;46354;-76
2023/04/21 06:05:54;;;;;;;;;29.67;24.00;;;;;8.65;100.00;100556.25;4977125;28;45424;-78
2023/04/21 06:08:21;;;;;;;;;34.33;29.00;;;;;8.61;100.00;100549.47;4986168;28;45963;-77
2023/04/21 06:10:46;;;;;;;;;31.00;28.33;;;;;8.72;100.00;100569.94;4971825;28;45901;-77
2023/04/21 06:13:11;;;;;;;;;32.33;28.00;;;;;8.68;100.00;100576.00;4974776;28;45541;-73
2023/04/21 06:15:37;;;;;;;;;35.00;29.33;;;;;8.51;100.00;100554.47;4961850;28;46128;-77
2023/04/21 06:18:02;;;;;;;;;42.33;34.00;;;;;8.52;100.00;100567.09;4945232;28;46102;-77
2023/04/21 06:20:28;;;;;;;;;35.67;29.67;;;;;8.40;100.00;100566.75;4960932;28;45525;-76
2023/04/21 06:22:53;;;;;;;;;37.33;27.67;;;;;8.31;100.00;100573.44;4973224;28;45976;-77
2023/04/21 06:25:22;;;;;;;;;35.33;31.00;;;;;8.04;100.00;100534.09;4957560;28;45518;-77
2023/04/21 06:27:48;;;;;;;;;37.50;32.25;;;;;8.29;100.00;100567.28;4971860;28;45982;-79
2023/04/21 06:30:13;;;;;;;;;42.33;30.00;;;;;8.27;100.00;100563.94;4970532;28;46002;-76
2023/04/21 06:32:39;;;;;;;;;36.67;32.00;;;;;8.30;100.00;100569.81;4967542;28;45879;-76
2023/04/21 06:35:05;;;;;;;;;39.75;31.25;;;;;8.33;100.00;100567.75;4977193;28;45563;-77
2023/04/21 06:37:30;;;;;;;;;30.25;29.00;;;;;8.44;100.00;100567.22;4978418;28;45774;-77
2023/04/21 06:39:56;;;;;;;;;36.00;31.00;;;;;8.54;100.00;100555.97;4970595;28;45733;-76
2023/04/21 06:42:21;;;;;;;;;35.33;31.67;;;;;8.63;100.00;100561.06;4957520;28;46054;-77
2023/04/21 06:44:47;;;;;;;;;20.33;18.00;;;;;8.73;100.00;100566.16;4957395;28;45857;-74
2023/04/21 06:47:15;;;;;;;;;41.00;33.33;;;;;8.79;100.00;100559.06;4970736;28;45889;-75
2023/04/21 06:49:40;;;;;;;;;35.00;32.00;;;;;8.76;100.00;100571.22;4950717;28;45890;-75
2023/04/21 06:52:06;;;;;;;;;31.67;28.33;;;;;8.70;100.00;100566.56;4970161;28;46187;-76
2023/04/21 06:54:31;;;;;;;;;31.67;28.33;;;;;8.76;100.00;100567.66;4969476;28;45951;-77
2023/04/21 06:56:57;;;;;;;;;34.67;32.00;;;;;8.79;100.00;100553.59;4969842;28;45983;-76
2023/04/21 06:59:22;;;;;;;;;42.33;32.00;;;;;8.98;100.00;100561.06;4969595;28;45898;-76
2023/04/21 07:01:51;;;;;;;;;31.67;29.00;;;;;9.16;100.00;100563.22;4965388;28;46672;-76
2023/04/21 07:04:19;;;;;;;;;31.67;29.67;;;;;9.27;100.00;100555.50;4987148;28;45969;-76
2023/04/21 07:06:46;;;;;;;;;36.33;31.67;;;;;9.49;100.00;100567.13;4979651;28;45963;-75
2023/04/21 07:09:11;;;;;;;;;28.67;25.00;;;;;9.57;100.00;100547.78;4977719;28;45523;-76
2023/04/21 07:11:37;;;;;;;;;33.67;31.00;;;;;9.92;100.00;100557.72;4975245;28;45695;-75
2023/04/21 07:14:02;;;;;;;;;29.00;26.67;;;;;10.18;100.00;100552.25;4979737;28;45538;-76
2023/04/21 07:16:28;;;;;;;;;35.33;28.33;;;;;10.39;100.00;100548.50;4970413;28;45849;-74
2023/04/21 07:18:54;;;;;;;;;34.00;28.67;;;;;10.29;100.00;100539.81;4966978;28;45849;-76
2023/04/21 07:21:19;;;;;;;;;33.67;29.00;;;;;10.23;100.00;100540.66;4967953;28;46956;-76
2023/04/21 07:23:45;;;;;;;;;29.33;25.00;;;;;10.23;100.00;100541.50;4983764;28;45987;-77
2023/04/21 07:26:10;;;;;;;;;32.33;28.67;;;;;10.37;100.00;100558.84;4970715;28;45834;-76
2023/04/21 07:28:39;;;;;;;;;29.67;23.00;;;;;10.41;100.00;100551.84;4969896;28;45473;-77
2023/04/21 07:31:04;;;;;;;;;32.00;28.00;;;;;10.58;100.00;100543.16;4973774;28;45839;-76
2023/04/21 07:33:30;;;;;;;;;29.33;27.67;;;;;10.84;100.00;100535.94;4952708;28;45981;-75
2023/04/21 07:35:55;;;;;;;;;33.67;28.00;;;;;10.92;100.00;100539.28;4970094;28;46237;-76
2023/04/21 07:38:21;;;;;;;;;22.33;21.33;;;;;11.18;100.00;100550.38;4969725;28;45493;-74
2023/04/21 07:40:46;;;;;;;;;54.25;42.75;;;;;12.73;100.00;100531.69;4973885;28;46125;-76
2023/04/21 07:43:12;;;;;;;;;68.75;52.00;;;;;14.52;100.00;100527.41;4970054;28;45627;-76
2023/04/21 07:45:37;;;;;;;;;28.33;26.67;;;;;16.41;100.00;100537.72;4951611;28;45409;-75
2023/04/21 07:48:04;;;;;;;;;36.67;30.33;;;;;18.23;100.00;100528.53;4969926;28;45564;-76
2023/04/21 07:50:30;;;;;;;;;22.67;21.00;;;;;19.89;100.00;100519.88;4969904;28;46189;-75
2023/04/21 07:53:01;;;;;;;;;30.00;24.67;;;;;21.16;100.00;100525.53;4968341;28;45865;-75
2023/04/21 07:55:40;;;;;;;;;27.33;23.33;;;;;22.06;91.72;100508.84;4954387;28;45600;-75
2023/04/21 07:58:21;;;;;;;;;23.00;20.33;;;;;22.10;87.48;100493.16;4947092;28;45582;-76
2023/04/21 08:00:48;;;;;;;;;25.00;23.00;;;;;21.34;83.38;100508.16;4953403;28;45902;-74
2023/04/21 08:03:20;;;;;;;;;24.33;18.67;;;;;20.53;83.26;100523.19;4958025;28;45796;-78
2023/04/21 08:05:49;;;;;;;;;28.33;22.67;;;;;19.89;83.79;100515.13;4952955;28;46469;-75
2023/04/21 08:08:19;;;;;;;;;26.00;24.67;;;;;19.34;85.09;100513.88;4967294;28;45753;-75
2023/04/21 08:10:44;;;;;;;;;24.33;22.67;;;;;18.78;83.40;100533.91;4970652;28;48056;-75
2023/04/21 08:13:10;;;;;;;;;24.00;17.33;;;;;18.28;83.47;100524.97;4964254;28;45755;-74
2023/04/21 08:15:41;;;;;;;;;20.33;18.67;;;;;18.11;85.21;100525.97;4956229;28;46021;-83
2023/04/21 08:18:37;;;;;;;;;21.33;18.00;;;;;18.00;82.67;100513.09;4968296;28;45802;-81
2023/04/21 08:21:02;;;;;;;;;24.00;22.67;;;;;18.06;83.50;100523.13;4967185;28;46026;-75
2023/04/21 08:23:30;;;;;;;;;25.33;20.67;;;;;18.04;83.11;100532.81;4969985;28;46249;-74
2023/04/21 08:25:56;;;;;;;;;29.33;25.67;;;;;17.50;83.19;100531.72;4967691;28;46006;-74
2023/04/21 08:28:21;;;;;;;;;17.00;16.33;;;;;16.96;83.01;100524.16;4967878;28;45784;-76
2023/04/21 08:30:47;;;;;;;;;19.67;17.67;;;;;16.66;84.68;100522.59;4969326;28;47341;-75
2023/04/21 08:33:12;;;;;;;;;35.00;29.33;;;;;16.51;85.90;100517.69;4969104;28;45755;-75
2023/04/21 08:35:41;;;;;;;;;22.67;22.67;;;;;16.58;85.79;100525.78;4972714;28;45635;-75
2023/04/21 08:38:07;;;;;;;;;30.00;23.00;;;;;16.28;85.84;100528.94;4971054;28;46901;-75
2023/04/21 08:40:36;;;;;;;;;16.67;15.67;;;;;16.14;87.26;100518.22;4972331;28;46276;-75
2023/04/21 08:43:04;;;;;;;;;24.33;22.67;;;;;16.76;87.55;100528.25;4966856;28;45474;-75
2023/04/21 08:45:31;;;;;;;;;32.00;21.33;;;;;18.17;83.90;100501.84;4954041;28;45866;-76
2023/04/21 08:47:59;;;;;;;;;25.00;21.67;;;;;19.75;80.39;100502.88;4974901;28;45566;-76
2023/04/21 08:50:28;;;;;;;;;27.33;20.00;;;;;21.45;77.25;100516.47;4972175;28;45939;-75
2023/04/21 08:52:54;;;;;;;;;21.00;17.33;;;;;22.50;72.93;100514.34;4972106;28;45730;-75
2023/04/21 08:55:31;;;;;;;;;21.00;20.00;;;;;22.14;69.11;100511.84;4972289;28;45768;-77
2023/04/21 08:57:57;;;;;;;;;21.00;18.67;;;;;21.69;67.67;100500.72;4970922;28;45579;-75
2023/04/21 09:00:23;;;;;;;;;21.67;15.67;;;;;21.35;67.00;100506.22;4970806;28;45857;-75
2023/04/21 09:02:56;;;;;;;;;23.00;23.00;;;;;20.53;66.78;100512.06;4970571;28;45756;-76
2023/04/21 09:05:24;;;;;;;;;21.00;19.33;;;;;19.93;67.99;100504.28;4952973;28;45644;-77
2023/04/21 09:07:50;;;;;;;;;21.00;19.00;;;;;20.85;67.75;100505.31;4957788;28;45744;-76
2023/04/21 09:10:21;;;;;;;;;16.67;16.00;;;;;21.32;66.62;100502.03;4970846;28;46425;-76
2023/04/21 09:12:50;;;;;;;;;18.67;14.33;;;;;21.29;64.85;100508.19;4971092;28;45817;-73
2023/04/21 09:15:15;;;;;;;;;17.33;17.33;;;;;21.28;64.15;100506.50;4969891;28;45965;-74
2023/04/21 09:17:44;;;;;;;;;23.33;18.00;;;;;20.96;65.45;100505.00;4971927;28;45463;-74
2023/04/21 09:20:16;;;;;;;;;16.33;16.00;;;;;20.44;65.12;100514.56;4969999;28;47237;-74
2023/04/21 09:22:42;;;;;;;;;19.67;17.67;;;;;19.81;65.38;100504.56;4971336;28;45450;-74
2023/04/21 09:25:07;;;;;;;;;17.33;16.33;;;;;19.76;66.21;100504.53;4953961;28;45423;-83
2023/04/21 09:27:36;;;;;;;;;20.00;20.00;;;;;19.64;66.37;100513.16;4972268;28;45658;-74
2023/04/21 09:30:05;;;;;;;;;17.67;16.33;;;;;19.25;67.11;100521.91;4969931;28;45527;-75
2023/04/21 09:32:36;;;;;;;;;21.67;17.33;;;;;18.65;66.92;100513.84;4970824;28;46069;-75
2023/04/21 09:35:02;;;;;;;;;18.00;16.00;;;;;18.33;68.00;100522.22;4967218;28;45563;-77
2023/04/21 09:37:32;;;;;;;;;21.33;17.33;;;;;18.12;69.52;100527.63;4967362;28;45524;-74
2023/04/21 09:39:58;;;;;;;;;19.33;15.67;;;;;18.07;71.99;100518.41;4966331;28;47059;-74
2023/04/21 09:42:28;;;;;;;;;19.67;16.33;;;;;18.69;72.60;100514.97;4970215;28;45700;-73
2023/04/21 09:44:54;;;;;;;;;21.00;16.67;;;;;18.74;71.39;100489.16;4947399;28;45862;-74
2023/04/21 09:47:21;;;;;;;;;17.67;16.33;;;;;18.81;69.54;100500.84;4968906;28;46088;-76
2023/04/21 09:49:53;;;;;;;;;15.50;15.50;;;;;18.78;70.86;100501.41;4975277;28;45539;-75
2023/04/21 09:52:19;;;;;;;;;20.67;18.33;;;;;18.77;68.09;100498.88;4965932;28;45662;-74
2023/04/21 09:54:50;;;;;;;;;17.00;16.67;;;;;18.79;68.46;100503.06;4964351;28;46645;-73
2023/04/21 09:57:25;;;;;;;;;21.67;16.00;;;;;18.81;70.24;100505.59;4967843;28;46033;-75
2023/04/21 09:59:56;;;;;;;;;21.33;18.33;;;;;18.65;67.62;100502.75;4971016;28;46448;-73
2023/04/21 10:02:25;;;;;;;;;21.67;18.33;;;;;18.41;66.96;100496.72;4966619;28;46140;-74
2023/04/21 10:04:51;;;;;;;;;18.33;17.33;;;;;18.23;66.70;100489.66;4968801;28;45960;-74
2023/04/21 10:07:29;;;;;;;;;18.33;18.33;;;;;18.14;68.30;100481.03;4969760;28;45740;-84
2023/04/21 10:09:59;;;;;;;;;19.67;17.00;;;;;17.98;66.49;100490.31;4960770;28;46878;-75
2023/04/21 10:12:26;;;;;;;;;13.00;13.00;;;;;17.89;66.94;100494.63;4971024;28;45629;-75
2023/04/21 10:14:52;;;;;;;;;20.33;18.33;;;;;17.44;65.89;100497.56;4956207;28;45847;-75
2023/04/21 10:17:23;;;;;;;;;23.33;20.33;;;;;17.23;66.84;100493.72;4972137;28;45770;-75
2023/04/21 10:19:50;;;;;;;;;18.00;18.00;;;;;17.15;67.54;100490.56;4973223;28;45716;-75
2023/04/21 10:22:30;;;;;;;;;21.33;19.00;;;;;17.06;68.23;100490.19;4980759;28;46055;-75
2023/04/21 10:24:57;;;;;;;;;16.00;16.00;;;;;16.93;68.67;100486.72;4979567;28;45810;-73
2023/04/21 10:27:43;;;;;;;;;23.67;19.00;;;;;16.79;68.49;100479.84;4985683;28;45668;-75
2023/04/21 10:30:24;;;;;;;;;25.00;22.67;;;;;16.68;69.14;100481.63;4972210;28;45452;-75
2023/04/21 10:33:02;;;;;;;;;25.00;21.33;;;;;16.62;70.08;100474.38;4971645;28;45952;-75
2023/04/21 10:35:57;;;;;;;;;36.33;28.67;;;;;16.69;70.28;100485.22;4964886;28;45932;-76
2023/04/21 10:38:42;;;;;;;;;18.00;16.00;;;;;16.44;69.54;100477.41;4971592;28;45967;-76
2023/04/21 10:41:28;;;;;;;;;22.00;18.00;;;;;16.36;69.34;100449.09;4977117;28;45500;-76
2023/04/21 10:44:14;;;;;;;;;22.33;20.33;;;;;16.57;68.35;100471.50;4980225;28;45477;-74
2023/04/21 10:46:45;;;;;;;;;26.33;23.00;;;;;16.61;67.89;100472.69;4966997;28;45478;-76
2023/04/21 10:49:24;;;;;;;;;21.33;20.33;;;;;16.65;67.40;100460.00;4976696;28;45466;-76
2023/04/21 10:52:00;;;;;;;;;18.00;16.33;;;;;16.99;66.40;100465.47;4970159;28;45461;-76
2023/04/21 10:54:27;;;;;;;;;26.00;20.67;;;;;17.17;66.70;100438.47;4977431;28;45588;-74
2023/04/21 10:56:54;;;;;;;;;21.67;18.67;;;;;18.05;65.53;100463.16;4972846;28;45618;-74
2023/04/21 10:59:19;;;;;;;;;18.00;15.67;;;;;18.42;66.46;100453.97;4980609;28;45785;-73
2023/04/21 11:01:45;;;;;;;;;17.67;16.67;;;;;18.55;65.14;100457.38;4973828;28;46344;-74
2023/04/21 11:04:19;;;;;;;;;23.33;19.00;;;;;18.51;64.27;100441.25;4949593;28;45674;-72
2023/04/21 11:07:07;;;;;;;;;10.67;7.67;;;;;18.74;64.90;100441.91;4982750;28;46007;-72
2023/04/21 11:09:32;;;;;;;;;17.67;14.00;;;;;18.86;64.33;100442.56;4982716;28;46237;-72